Time,TemperatureF,DewpointF,PressureIn,WindDirection,WindDirectionDegrees,WindSpeedMPH,WindSpeedGustMPH,Humidity,HourlyPrecipIn,Conditions,Clouds,dailyrainin,SoftwareType,DateUTC
2013-06-20 19:45:00,66.5,62.2,29.61,NNW,333,8.0,8.0,86,2.39,,,0.56,Wunderground v.1.15,2013-06-21 00:45:00,
2013-06-20 19:50:00,65.5,61.5,29.60,NE,44,7.0,8.0,87,2.89,,,0.75,Wunderground v.1.15,2013-06-21 00:50:00,
2013-06-20 19:55:00,64.8,61.5,29.61,North,11,6.0,6.0,89,3.41,,,0.97,Wunderground v.1.15,2013-06-21 00:55:00,
2013-06-20 20:00:00,64.4,61.4,29.62,ESE,111,7.0,7.0,90,4.33,,,1.26,Wunderground v.1.15,2013-06-21 01:00:00,
2013-06-20 20:10:00,63.5,61.1,29.58,ENE,72,12.0,12.0,92,0.46,,,1.59,Wunderground v.1.15,2013-06-21 01:10:00,
2013-06-20 20:15:00,63.5,61.1,29.60,East,98,11.0,12.0,92,0.91,,,1.67,Wunderground v.1.15,2013-06-21 01:15:00,
2013-06-20 20:20:00,63.6,61.2,29.62,SE,125,10.0,10.0,92,1.79,,,1.77,Wunderground v.1.15,2013-06-21 01:20:00,
2013-06-20 20:25:00,63.0,60.6,29.58,ESE,103,10.0,10.0,92,0.99,,,1.91,Wunderground v.1.15,2013-06-21 01:25:00,
2013-06-20 20:30:00,62.6,60.2,29.56,ESE,123,10.0,10.0,92,0.71,,,1.97,Wunderground v.1.15,2013-06-21 01:30:00,
2013-06-20 20:35:00,62.6,60.5,29.57,SSE,149,10.0,10.0,93,0.24,,,2.02,Wunderground v.1.15,2013-06-21 01:35:00,
2013-06-20 20:45:00,62.7,60.6,29.56,ESE,111,8.0,8.0,93,0.12,,,2.03,Wunderground v.1.15,2013-06-21 01:45:00,
2013-06-20 20:50:00,62.5,60.4,29.56,SE,125,8.0,8.0,93,0.06,,,2.03,Wunderground v.1.15,2013-06-21 01:50:00,
2013-06-20 20:55:00,62.7,60.3,29.56,SE,132,5.0,8.0,92,0.04,,,2.03,Wunderground v.1.15,2013-06-21 01:55:00,
2013-06-20 21:00:00,62.6,59.9,29.56,ESE,106,3.0,7.0,91,0.00,,,2.03,Wunderground v.1.15,2013-06-21 02:00:00,
2013-06-20 21:10:00,61.6,58.0,29.59,ESE,111,4.0,4.0,88,0.00,,,2.03,Wunderground v.1.15,2013-06-21 02:10:00,
2013-06-20 21:20:00,62.3,59.6,29.60,ESE,109,4.0,4.0,91,0.00,,,2.03,Wunderground v.1.15,2013-06-21 02:20:00,
2013-06-20 21:25:00,62.6,59.9,29.58,SE,126,3.0,4.0,91,0.00,,,2.03,Wunderground v.1.15,2013-06-21 02:25:00,
2013-06-20 21:30:00,62.8,60.4,29.59,East,84,2.0,2.0,92,0.00,,,2.03,Wunderground v.1.15,2013-06-21 02:30:00,
2013-06-20 21:35:00,63.0,60.6,29.61,East,84,1.0,2.0,92,0.00,,,2.03,Wunderground v.1.15,2013-06-21 02:35:00,
2013-06-20 21:40:00,63.1,60.7,29.62,East,88,0.0,1.0,92,0.00,,,2.03,Wunderground v.1.15,2013-06-21 02:40:00,
2013-06-20 21:45:00,63.1,60.7,29.61,East,88,0.0,1.0,92,0.00,,,2.03,Wunderground v.1.15,2013-06-21 02:45:00,
2013-06-20 21:55:00,63.2,61.1,29.61,North,360,0.0,1.0,93,0.00,,,2.03,Wunderground v.1.15,2013-06-21 02:55:00,
2013-06-20 22:00:00,63.0,60.6,29.61,NNE,15,2.0,5.0,92,0.00,,,2.03,Wunderground v.1.15,2013-06-21 03:00:00,
2013-06-20 22:10:00,61.7,59.0,29.64,NE,49,3.0,4.0,91,0.00,,,2.03,Wunderground v.1.15,2013-06-21 03:10:00,
2013-06-20 22:15:00,61.5,59.2,29.64,NNW,345,3.0,4.0,92,0.00,,,2.03,Wunderground v.1.15,2013-06-21 03:15:00,
2013-06-20 22:20:00,61.6,59.3,29.64,NNE,13,2.0,2.0,92,0.00,,,2.03,Wunderground v.1.15,2013-06-21 03:20:00,
2013-06-20 22:30:00,61.8,59.8,29.63,NNE,13,1.0,1.0,93,0.00,,,2.03,Wunderground v.1.15,2013-06-21 03:30:00,
2013-06-20 22:35:00,61.7,59.7,29.64,NNE,13,1.0,1.0,93,0.00,,,2.03,Wunderground v.1.15,2013-06-21 03:35:00,
2013-06-20 22:40:00,61.9,59.9,29.64,NNE,14,0.0,1.0,93,0.00,,,2.03,Wunderground v.1.15,2013-06-21 03:40:00,
2013-06-20 22:45:00,61.9,59.9,29.64,NE,42,1.0,1.0,93,0.00,,,2.03,Wunderground v.1.15,2013-06-21 03:45:00,
2013-06-20 22:50:00,61.9,59.9,29.65,NE,41,1.0,1.0,93,0.00,,,2.03,Wunderground v.1.15,2013-06-21 03:50:00,
2013-06-20 23:00:00,61.9,59.5,29.64,ENE,59,2.0,2.0,92,0.00,,,2.03,Wunderground v.1.15,2013-06-21 04:00:00,
2013-06-20 23:05:00,61.8,59.5,29.65,ENE,59,1.0,2.0,92,0.00,,,2.03,Wunderground v.1.15,2013-06-21 04:05:00,
2013-06-20 23:10:00,61.7,59.4,29.66,East,84,0.0,0.0,92,0.00,,,2.03,Wunderground v.1.15,2013-06-21 04:10:00,
2013-06-20 23:15:00,61.7,59.0,29.65,East,83,0.0,0.0,91,0.00,,,2.03,Wunderground v.1.15,2013-06-21 04:15:00,
2013-06-20 23:20:00,61.6,58.6,29.65,East,84,0.0,0.0,90,0.00,,,2.03,Wunderground v.1.15,2013-06-21 04:20:00,
2013-06-20 23:25:00,61.4,58.7,29.65,East,84,0.0,0.0,91,0.00,,,2.03,Wunderground v.1.15,2013-06-21 04:25:00,
2013-06-20 23:30:00,61.2,58.6,29.66,East,83,0.0,0.0,91,0.00,,,2.03,Wunderground v.1.15,2013-06-21 04:30:00,
2013-06-20 23:40:00,60.9,58.3,29.66,East,84,0.0,0.0,91,0.00,,,2.03,Wunderground v.1.15,2013-06-21 04:40:00,
2013-06-20 23:45:00,60.8,58.5,29.66,East,83,0.0,0.0,92,0.00,,,2.03,Wunderground v.1.15,2013-06-21 04:45:00,
2013-06-20 23:50:00,60.7,58.1,29.66,East,84,0.0,0.0,91,0.00,,,2.03,Wunderground v.1.15,2013-06-21 04:50:00,
2013-06-20 23:55:00,60.6,58.3,29.67,East,83,0.0,0.0,92,0.00,,,2.03,Wunderground v.1.15,2013-06-21 04:55:00,